sensor_id;sensor_type;location;lat;lon;timestamp;temperature;humidity
4530;DHT22;2277;51.626;7.516;2023-05-29T00:01:26;17.50;99.90
4530;DHT22;2277;51.626;7.516;2023-05-29T00:03:52;17.50;99.90
4530;DHT22;2277;51.626;7.516;2023-05-29T00:06:19;17.50;99.90
4530;DHT22;2277;51.626;7.516;2023-05-29T00:08:45;17.40;99.90
4530;DHT22;2277;51.626;7.516;2023-05-29T00:11:11;17.40;99.90
4530;DHT22;2277;51.626;7.516;2023-05-29T00:13:36;17.40;99.90
4530;DHT22;2277;51.626;7.516;2023-05-29T00:16:02;17.40;99.90
4530;DHT22;2277;51.626;7.516;2023-05-29T00:18:29;17.30;99.90
4530;DHT22;2277;51.626;7.516;2023-05-29T00:20:54;17.20;99.90
4530;DHT22;2277;51.626;7.516;2023-05-29T00:23:21;17.20;99.90
4530;DHT22;2277;51.626;7.516;2023-05-29T00:25:47;17.20;99.90
4530;DHT22;2277;51.626;7.516;2023-05-29T00:28:13;17.20;99.90
4530;DHT22;2277;51.626;7.516;2023-05-29T00:30:39;17.10;99.90
4530;DHT22;2277;51.626;7.516;2023-05-29T00:33:05;17.00;99.90
4530;DHT22;2277;51.626;7.516;2023-05-29T00:35:31;17.00;99.90
4530;DHT22;2277;51.626;7.516;2023-05-29T00:37:57;16.90;99.90
4530;DHT22;2277;51.626;7.516;2023-05-29T00:40:25;16.70;99.90
4530;DHT22;2277;51.626;7.516;2023-05-29T00:42:51;16.60;99.90
4530;DHT22;2277;51.626;7.516;2023-05-29T00:45:17;16.60;99.90
4530;DHT22;2277;51.626;7.516;2023-05-29T00:47:43;16.60;99.90
4530;DHT22;2277;51.626;7.516;2023-05-29T00:50:10;16.60;99.90
4530;DHT22;2277;51.626;7.516;2023-05-29T00:52:37;16.60;99.90
4530;DHT22;2277;51.626;7.516;2023-05-29T00:55:03;16.50;99.90
4530;DHT22;2277;51.626;7.516;2023-05-29T00:57:30;16.50;99.90
4530;DHT22;2277;51.626;7.516;2023-05-29T00:59:58;16.50;99.90
4530;DHT22;2277;51.626;7.516;2023-05-29T01:02:25;16.40;99.90
4530;DHT22;2277;51.626;7.516;2023-05-29T01:04:51;16.40;99.90
4530;DHT22;2277;51.626;7.516;2023-05-29T01:07:20;16.30;99.90
4530;DHT22;2277;51.626;7.516;2023-05-29T01:09:45;16.20;99.90
4530;DHT22;2277;51.626;7.516;2023-05-29T01:12:16;16.20;99.90
4530;DHT22;2277;51.626;7.516;2023-05-29T01:17:30;16.10;99.90
4530;DHT22;2277;51.626;7.516;2023-05-29T01:28:20;16.00;99.90
4530;DHT22;2277;51.626;7.516;2023-05-29T01:30:47;15.80;99.90
4530;DHT22;2277;51.626;7.516;2023-05-29T01:33:14;15.80;99.90
4530;DHT22;2277;51.626;7.516;2023-05-29T01:35:40;15.80;99.90
4530;DHT22;2277;51.626;7.516;2023-05-29T01:38:06;15.70;99.90
4530;DHT22;2277;51.626;7.516;2023-05-29T01:40:31;15.70;99.90
4530;DHT22;2277;51.626;7.516;2023-05-29T01:42:57;15.60;99.90
4530;DHT22;2277;51.626;7.516;2023-05-29T01:45:23;15.50;99.90
4530;DHT22;2277;51.626;7.516;2023-05-29T01:47:49;15.50;99.90
4530;DHT22;2277;51.626;7.516;2023-05-29T01:50:17;15.50;99.90
4530;DHT22;2277;51.626;7.516;2023-05-29T01:52:44;15.50;99.90
4530;DHT22;2277;51.626;7.516;2023-05-29T01:55:09;15.50;99.90
4530;DHT22;2277;51.626;7.516;2023-05-29T01:57:36;15.50;99.90
4530;DHT22;2277;51.626;7.516;2023-05-29T02:00:03;15.40;99.90
4530;DHT22;2277;51.626;7.516;2023-05-29T02:02:38;15.40;99.90
4530;DHT22;2277;51.626;7.516;2023-05-29T02:05:05;15.40;99.90
4530;DHT22;2277;51.626;7.516;2023-05-29T02:07:31;15.40;99.90
4530;DHT22;2277;51.626;7.516;2023-05-29T02:09:56;15.40;99.90
4530;DHT22;2277;51.626;7.516;2023-05-29T02:12:22;15.20;99.90
4530;DHT22;2277;51.626;7.516;2023-05-29T02:14:47;15.20;99.90
4530;DHT22;2277;51.626;7.516;2023-05-29T02:17:13;15.20;99.90
4530;DHT22;2277;51.626;7.516;2023-05-29T02:19:40;15.20;99.90
4530;DHT22;2277;51.626;7.516;2023-05-29T02:22:06;15.20;99.90
4530;DHT22;2277;51.626;7.516;2023-05-29T02:24:32;15.20;99.90
4530;DHT22;2277;51.626;7.516;2023-05-29T02:26:58;15.20;99.90
4530;DHT22;2277;51.626;7.516;2023-05-29T02:29:23;15.20;99.90
4530;DHT22;2277;51.626;7.516;2023-05-29T02:31:49;15.20;99.90
4530;DHT22;2277;51.626;7.516;2023-05-29T02:34:15;15.10;99.90
4530;DHT22;2277;51.626;7.516;2023-05-29T02:36:40;15.10;99.90
4530;DHT22;2277;51.626;7.516;2023-05-29T02:39:06;15.10;99.90
4530;DHT22;2277;51.626;7.516;2023-05-29T02:41:31;15.10;99.90
4530;DHT22;2277;51.626;7.516;2023-05-29T02:43:57;15.00;99.90
4530;DHT22;2277;51.626;7.516;2023-05-29T02:46:23;15.00;99.90
4530;DHT22;2277;51.626;7.516;2023-05-29T02:48:48;15.00;99.90
4530;DHT22;2277;51.626;7.516;2023-05-29T02:51:14;15.00;99.90
4530;DHT22;2277;51.626;7.516;2023-05-29T02:53:40;14.90;99.90
4530;DHT22;2277;51.626;7.516;2023-05-29T02:56:06;15.00;99.90
4530;DHT22;2277;51.626;7.516;2023-05-29T02:58:33;14.90;99.90
4530;DHT22;2277;51.626;7.516;2023-05-29T03:01:01;14.90;99.90
4530;DHT22;2277;51.626;7.516;2023-05-29T03:03:29;14.90;99.90
4530;DHT22;2277;51.626;7.516;2023-05-29T03:05:55;14.90;99.90
4530;DHT22;2277;51.626;7.516;2023-05-29T03:08:20;14.90;99.90
4530;DHT22;2277;51.626;7.516;2023-05-29T03:10:46;14.80;99.90
4530;DHT22;2277;51.626;7.516;2023-05-29T03:13:13;14.80;99.90
4530;DHT22;2277;51.626;7.516;2023-05-29T03:15:38;14.80;99.90
4530;DHT22;2277;51.626;7.516;2023-05-29T03:18:04;14.70;99.90
4530;DHT22;2277;51.626;7.516;2023-05-29T03:20:30;14.70;99.90
4530;DHT22;2277;51.626;7.516;2023-05-29T03:22:55;14.70;99.90
4530;DHT22;2277;51.626;7.516;2023-05-29T03:25:22;14.70;99.90
4530;DHT22;2277;51.626;7.516;2023-05-29T03:27:48;14.60;99.90
4530;DHT22;2277;51.626;7.516;2023-05-29T03:30:14;14.60;99.90
4530;DHT22;2277;51.626;7.516;2023-05-29T03:32:39;14.60;99.90
4530;DHT22;2277;51.626;7.516;2023-05-29T03:35:06;14.60;99.90
4530;DHT22;2277;51.626;7.516;2023-05-29T03:37:31;14.50;99.90
4530;DHT22;2277;51.626;7.516;2023-05-29T03:39:57;14.50;99.90
4530;DHT22;2277;51.626;7.516;2023-05-29T03:42:22;14.50;99.90
4530;DHT22;2277;51.626;7.516;2023-05-29T03:44:48;14.50;99.90
4530;DHT22;2277;51.626;7.516;2023-05-29T03:47:13;14.50;99.90
4530;DHT22;2277;51.626;7.516;2023-05-29T03:49:39;14.50;99.90
4530;DHT22;2277;51.626;7.516;2023-05-29T03:52:05;14.50;99.90
4530;DHT22;2277;51.626;7.516;2023-05-29T03:54:32;14.40;99.90
4530;DHT22;2277;51.626;7.516;2023-05-29T03:56:58;14.30;99.90
4530;DHT22;2277;51.626;7.516;2023-05-29T03:59:23;14.30;99.90
4530;DHT22;2277;51.626;7.516;2023-05-29T04:01:49;14.30;99.90
4530;DHT22;2277;51.626;7.516;2023-05-29T04:04:15;14.30;99.90
4530;DHT22;2277;51.626;7.516;2023-05-29T04:06:40;14.40;99.90
4530;DHT22;2277;51.626;7.516;2023-05-29T04:09:06;14.40;99.90
4530;DHT22;2277;51.626;7.516;2023-05-29T04:11:33;14.40;99.90
4530;DHT22;2277;51.626;7.516;2023-05-29T04:14:02;14.40;99.90
4530;DHT22;2277;51.626;7.516;2023-05-29T04:16:28;14.40;99.90
4530;DHT22;2277;51.626;7.516;2023-05-29T04:18:54;14.40;99.90
4530;DHT22;2277;51.626;7.516;2023-05-29T04:21:20;14.30;99.90
4530;DHT22;2277;51.626;7.516;2023-05-29T04:23:46;14.30;99.90
4530;DHT22;2277;51.626;7.516;2023-05-29T04:26:12;14.30;99.90
4530;DHT22;2277;51.626;7.516;2023-05-29T04:28:38;14.30;99.90
4530;DHT22;2277;51.626;7.516;2023-05-29T04:31:04;14.40;99.90
4530;DHT22;2277;51.626;7.516;2023-05-29T04:33:31;14.40;99.90
4530;DHT22;2277;51.626;7.516;2023-05-29T04:35:58;14.30;99.90
4530;DHT22;2277;51.626;7.516;2023-05-29T04:38:26;14.30;99.90
4530;DHT22;2277;51.626;7.516;2023-05-29T04:40:53;14.30;99.90
4530;DHT22;2277;51.626;7.516;2023-05-29T04:43:23;14.30;99.90
4530;DHT22;2277;51.626;7.516;2023-05-29T04:45:52;14.30;99.90
4530;DHT22;2277;51.626;7.516;2023-05-29T04:48:18;14.30;99.90
4530;DHT22;2277;51.626;7.516;2023-05-29T04:50:44;14.30;99.90
4530;DHT22;2277;51.626;7.516;2023-05-29T04:53:11;14.40;99.90
4530;DHT22;2277;51.626;7.516;2023-05-29T04:55:36;14.40;99.90
4530;DHT22;2277;51.626;7.516;2023-05-29T04:58:02;14.40;99.90
4530;DHT22;2277;51.626;7.516;2023-05-29T05:00:28;14.40;99.90
4530;DHT22;2277;51.626;7.516;2023-05-29T05:02:54;14.40;99.90
4530;DHT22;2277;51.626;7.516;2023-05-29T05:05:20;14.40;99.90
4530;DHT22;2277;51.626;7.516;2023-05-29T05:07:46;14.50;99.90
4530;DHT22;2277;51.626;7.516;2023-05-29T05:10:11;14.40;99.90
4530;DHT22;2277;51.626;7.516;2023-05-29T05:12:37;14.50;99.90
4530;DHT22;2277;51.626;7.516;2023-05-29T05:15:03;14.50;99.90
4530;DHT22;2277;51.626;7.516;2023-05-29T05:17:29;14.50;99.90
4530;DHT22;2277;51.626;7.516;2023-05-29T05:19:55;14.50;99.90
4530;DHT22;2277;51.626;7.516;2023-05-29T05:22:21;14.60;99.90
4530;DHT22;2277;51.626;7.516;2023-05-29T05:24:46;14.60;99.90
4530;DHT22;2277;51.626;7.516;2023-05-29T05:27:13;14.60;99.90
4530;DHT22;2277;51.626;7.516;2023-05-29T05:29:39;14.60;99.90
4530;DHT22;2277;51.626;7.516;2023-05-29T05:32:05;14.60;99.90
4530;DHT22;2277;51.626;7.516;2023-05-29T05:34:31;14.70;99.90
4530;DHT22;2277;51.626;7.516;2023-05-29T05:36:56;14.70;99.90
4530;DHT22;2277;51.626;7.516;2023-05-29T05:39:22;14.60;99.90
4530;DHT22;2277;51.626;7.516;2023-05-29T05:41:48;14.60;99.90
4530;DHT22;2277;51.626;7.516;2023-05-29T05:44:13;14.60;99.90
4530;DHT22;2277;51.626;7.516;2023-05-29T05:46:39;14.60;99.90
4530;DHT22;2277;51.626;7.516;2023-05-29T05:49:05;14.70;99.90
4530;DHT22;2277;51.626;7.516;2023-05-29T05:51:30;14.70;99.90
4530;DHT22;2277;51.626;7.516;2023-05-29T05:53:56;14.70;99.90
4530;DHT22;2277;51.626;7.516;2023-05-29T05:56:22;14.80;99.90
4530;DHT22;2277;51.626;7.516;2023-05-29T05:58:47;14.70;99.90
4530;DHT22;2277;51.626;7.516;2023-05-29T06:01:15;14.70;99.90
4530;DHT22;2277;51.626;7.516;2023-05-29T06:03:40;14.70;99.90
4530;DHT22;2277;51.626;7.516;2023-05-29T06:06:06;14.70;99.90
4530;DHT22;2277;51.626;7.516;2023-05-29T06:08:33;14.80;99.90
4530;DHT22;2277;51.626;7.516;2023-05-29T06:10:58;14.80;99.90
4530;DHT22;2277;51.626;7.516;2023-05-29T06:13:24;14.80;99.90
4530;DHT22;2277;51.626;7.516;2023-05-29T06:15:49;14.80;99.90
4530;DHT22;2277;51.626;7.516;2023-05-29T06:18:15;14.90;99.90
4530;DHT22;2277;51.626;7.516;2023-05-29T06:20:41;14.90;99.90
4530;DHT22;2277;51.626;7.516;2023-05-29T06:23:07;14.80;99.90
4530;DHT22;2277;51.626;7.516;2023-05-29T06:25:32;14.80;99.90
4530;DHT22;2277;51.626;7.516;2023-05-29T06:28:01;14.90;99.90
4530;DHT22;2277;51.626;7.516;2023-05-29T06:30:27;15.00;99.90
4530;DHT22;2277;51.626;7.516;2023-05-29T06:32:53;15.10;99.90
4530;DHT22;2277;51.626;7.516;2023-05-29T06:35:19;15.10;99.90
4530;DHT22;2277;51.626;7.516;2023-05-29T06:37:46;15.20;99.90
4530;DHT22;2277;51.626;7.516;2023-05-29T06:40:12;15.30;99.90
4530;DHT22;2277;51.626;7.516;2023-05-29T06:42:38;15.40;99.90
4530;DHT22;2277;51.626;7.516;2023-05-29T06:45:04;15.50;99.90
4530;DHT22;2277;51.626;7.516;2023-05-29T06:47:30;15.60;99.90
4530;DHT22;2277;51.626;7.516;2023-05-29T06:49:55;15.60;99.90
4530;DHT22;2277;51.626;7.516;2023-05-29T06:52:21;15.60;99.90
4530;DHT22;2277;51.626;7.516;2023-05-29T06:54:46;15.70;99.90
4530;DHT22;2277;51.626;7.516;2023-05-29T06:57:12;15.80;99.90
4530;DHT22;2277;51.626;7.516;2023-05-29T06:59:38;15.90;99.90
4530;DHT22;2277;51.626;7.516;2023-05-29T07:02:04;16.10;99.90
4530;DHT22;2277;51.626;7.516;2023-05-29T07:04:30;16.10;99.90
4530;DHT22;2277;51.626;7.516;2023-05-29T07:06:55;16.30;99.90
4530;DHT22;2277;51.626;7.516;2023-05-29T07:09:21;16.30;99.90
4530;DHT22;2277;51.626;7.516;2023-05-29T07:11:46;16.30;99.90
4530;DHT22;2277;51.626;7.516;2023-05-29T07:14:12;16.30;99.90
4530;DHT22;2277;51.626;7.516;2023-05-29T07:16:38;16.40;99.90
4530;DHT22;2277;51.626;7.516;2023-05-29T07:19:04;16.40;99.90
4530;DHT22;2277;51.626;7.516;2023-05-29T07:21:29;16.70;99.90
4530;DHT22;2277;51.626;7.516;2023-05-29T07:23:56;16.80;99.90
4530;DHT22;2277;51.626;7.516;2023-05-29T07:26:22;17.00;99.90
4530;DHT22;2277;51.626;7.516;2023-05-29T07:28:48;17.20;99.90
4530;DHT22;2277;51.626;7.516;2023-05-29T07:31:14;17.30;99.90
4530;DHT22;2277;51.626;7.516;2023-05-29T07:33:40;17.40;99.90
4530;DHT22;2277;51.626;7.516;2023-05-29T07:36:07;17.50;99.90
4530;DHT22;2277;51.626;7.516;2023-05-29T07:38:33;17.60;99.90
4530;DHT22;2277;51.626;7.516;2023-05-29T07:40:58;17.80;99.90
4530;DHT22;2277;51.626;7.516;2023-05-29T07:43:24;18.00;99.90
4530;DHT22;2277;51.626;7.516;2023-05-29T07:45:50;17.90;99.90
4530;DHT22;2277;51.626;7.516;2023-05-29T07:48:15;18.00;99.90
4530;DHT22;2277;51.626;7.516;2023-05-29T07:50:41;18.20;99.90
4530;DHT22;2277;51.626;7.516;2023-05-29T07:53:06;18.30;99.90
4530;DHT22;2277;51.626;7.516;2023-05-29T07:55:34;18.40;99.90
4530;DHT22;2277;51.626;7.516;2023-05-29T07:58:00;18.50;99.90
4530;DHT22;2277;51.626;7.516;2023-05-29T08:00:27;18.40;99.90
4530;DHT22;2277;51.626;7.516;2023-05-29T08:02:53;18.50;99.90
4530;DHT22;2277;51.626;7.516;2023-05-29T08:05:19;18.60;99.90
4530;DHT22;2277;51.626;7.516;2023-05-29T08:07:45;18.70;99.90
4530;DHT22;2277;51.626;7.516;2023-05-29T08:10:12;18.90;99.90
4530;DHT22;2277;51.626;7.516;2023-05-29T08:12:37;19.00;99.90
4530;DHT22;2277;51.626;7.516;2023-05-29T08:15:03;19.10;99.90
4530;DHT22;2277;51.626;7.516;2023-05-29T08:17:29;19.30;99.90
4530;DHT22;2277;51.626;7.516;2023-05-29T08:19:55;19.30;99.90
4530;DHT22;2277;51.626;7.516;2023-05-29T08:22:28;19.40;99.90
4530;DHT22;2277;51.626;7.516;2023-05-29T08:24:54;19.50;99.90
4530;DHT22;2277;51.626;7.516;2023-05-29T08:27:19;19.60;99.90
4530;DHT22;2277;51.626;7.516;2023-05-29T08:29:45;19.60;99.90
4530;DHT22;2277;51.626;7.516;2023-05-29T08:32:11;19.60;99.90
4530;DHT22;2277;51.626;7.516;2023-05-29T08:34:36;19.70;99.90
4530;DHT22;2277;51.626;7.516;2023-05-29T08:37:02;19.90;99.90
4530;DHT22;2277;51.626;7.516;2023-05-29T08:39:28;20.00;99.90
4530;DHT22;2277;51.626;7.516;2023-05-29T08:42:01;20.10;99.90
4530;DHT22;2277;51.626;7.516;2023-05-29T08:44:30;20.30;99.90
4530;DHT22;2277;51.626;7.516;2023-05-29T08:47:02;20.40;99.90
4530;DHT22;2277;51.626;7.516;2023-05-29T08:49:40;20.60;99.90
4530;DHT22;2277;51.626;7.516;2023-05-29T08:52:19;20.70;99.90
4530;DHT22;2277;51.626;7.516;2023-05-29T08:54:45;20.70;99.90
4530;DHT22;2277;51.626;7.516;2023-05-29T08:57:11;20.80;99.90
4530;DHT22;2277;51.626;7.516;2023-05-29T08:59:39;21.00;99.90
4530;DHT22;2277;51.626;7.516;2023-05-29T09:02:07;21.20;99.90
4530;DHT22;2277;51.626;7.516;2023-05-29T09:04:32;21.20;99.90
4530;DHT22;2277;51.626;7.516;2023-05-29T09:06:59;21.30;99.90
4530;DHT22;2277;51.626;7.516;2023-05-29T09:09:26;21.40;99.90
4530;DHT22;2277;51.626;7.516;2023-05-29T09:11:55;21.50;99.90
4530;DHT22;2277;51.626;7.516;2023-05-29T09:14:38;21.60;99.90
4530;DHT22;2277;51.626;7.516;2023-05-29T09:17:05;21.60;99.90
4530;DHT22;2277;51.626;7.516;2023-05-29T09:19:32;21.60;99.90
4530;DHT22;2277;51.626;7.516;2023-05-29T09:22:05;21.80;99.90
4530;DHT22;2277;51.626;7.516;2023-05-29T09:24:35;21.90;99.90
4530;DHT22;2277;51.626;7.516;2023-05-29T09:27:04;22.00;99.90
4530;DHT22;2277;51.626;7.516;2023-05-29T09:29:33;22.20;99.90
4530;DHT22;2277;51.626;7.516;2023-05-29T09:32:00;22.40;99.90
4530;DHT22;2277;51.626;7.516;2023-05-29T09:34:26;22.60;99.90
4530;DHT22;2277;51.626;7.516;2023-05-29T09:36:53;22.50;99.90
4530;DHT22;2277;51.626;7.516;2023-05-29T09:39:19;22.70;99.90
4530;DHT22;2277;51.626;7.516;2023-05-29T09:41:45;22.60;99.90
4530;DHT22;2277;51.626;7.516;2023-05-29T09:44:15;22.80;99.90
4530;DHT22;2277;51.626;7.516;2023-05-29T09:46:41;22.80;99.90
4530;DHT22;2277;51.626;7.516;2023-05-29T09:49:12;23.00;99.90
4530;DHT22;2277;51.626;7.516;2023-05-29T09:51:38;23.20;99.90
4530;DHT22;2277;51.626;7.516;2023-05-29T09:54:17;23.30;99.90
4530;DHT22;2277;51.626;7.516;2023-05-29T09:56:43;23.30;99.50
4530;DHT22;2277;51.626;7.516;2023-05-29T09:59:11;23.40;99.90
4530;DHT22;2277;51.626;7.516;2023-05-29T10:01:42;23.60;99.90
4530;DHT22;2277;51.626;7.516;2023-05-29T10:04:12;23.70;99.90
4530;DHT22;2277;51.626;7.516;2023-05-29T10:06:44;23.70;99.60
4530;DHT22;2277;51.626;7.516;2023-05-29T10:09:12;23.60;98.10
4530;DHT22;2277;51.626;7.516;2023-05-29T10:11:43;23.70;98.60
4530;DHT22;2277;51.626;7.516;2023-05-29T10:14:18;23.80;97.90
4530;DHT22;2277;51.626;7.516;2023-05-29T10:16:49;24.00;97.70
4530;DHT22;2277;51.626;7.516;2023-05-29T10:19:28;24.10;97.10
4530;DHT22;2277;51.626;7.516;2023-05-29T10:21:54;24.20;96.20
4530;DHT22;2277;51.626;7.516;2023-05-29T10:24:21;24.20;96.00
4530;DHT22;2277;51.626;7.516;2023-05-29T10:26:49;24.20;96.90
4530;DHT22;2277;51.626;7.516;2023-05-29T10:40:04;24.00;92.00
4530;DHT22;2277;51.626;7.516;2023-05-29T10:42:50;24.00;94.70
4530;DHT22;2277;51.626;7.516;2023-05-29T10:53:01;24.50;97.10
4530;DHT22;2277;51.626;7.516;2023-05-29T10:55:37;24.70;94.20
4530;DHT22;2277;51.626;7.516;2023-05-29T10:58:24;24.80;95.40
4530;DHT22;2277;51.626;7.516;2023-05-29T11:00:50;24.70;93.70
4530;DHT22;2277;51.626;7.516;2023-05-29T11:03:24;24.80;92.50
4530;DHT22;2277;51.626;7.516;2023-05-29T11:06:04;24.80;93.30
4530;DHT22;2277;51.626;7.516;2023-05-29T11:08:46;25.00;94.00
4530;DHT22;2277;51.626;7.516;2023-05-29T11:11:34;25.00;93.80
4530;DHT22;2277;51.626;7.516;2023-05-29T11:14:03;24.90;92.80
4530;DHT22;2277;51.626;7.516;2023-05-29T11:18:56;25.00;92.60
4530;DHT22;2277;51.626;7.516;2023-05-29T11:21:38;25.00;92.50
4530;DHT22;2277;51.626;7.516;2023-05-29T11:24:14;25.10;93.00
4530;DHT22;2277;51.626;7.516;2023-05-29T11:26:45;25.10;91.40
4530;DHT22;2277;51.626;7.516;2023-05-29T11:29:11;25.20;91.50
4530;DHT22;2277;51.626;7.516;2023-05-29T11:31:39;25.20;92.90
4530;DHT22;2277;51.626;7.516;2023-05-29T11:34:09;25.30;91.90
4530;DHT22;2277;51.626;7.516;2023-05-29T11:36:36;25.40;92.50
4530;DHT22;2277;51.626;7.516;2023-05-29T11:39:02;25.50;91.40
4530;DHT22;2277;51.626;7.516;2023-05-29T11:41:29;25.40;91.60
4530;DHT22;2277;51.626;7.516;2023-05-29T11:44:02;25.50;90.30
4530;DHT22;2277;51.626;7.516;2023-05-29T11:46:29;25.50;90.80
4530;DHT22;2277;51.626;7.516;2023-05-29T11:49:00;25.50;91.40
4530;DHT22;2277;51.626;7.516;2023-05-29T11:51:27;25.70;92.10
4530;DHT22;2277;51.626;7.516;2023-05-29T11:53:52;25.80;90.80
4530;DHT22;2277;51.626;7.516;2023-05-29T11:56:24;25.80;87.50
4530;DHT22;2277;51.626;7.516;2023-05-29T11:58:50;26.00;90.00
4530;DHT22;2277;51.626;7.516;2023-05-29T12:01:17;25.90;88.70
4530;DHT22;2277;51.626;7.516;2023-05-29T12:03:44;26.00;87.80
4530;DHT22;2277;51.626;7.516;2023-05-29T12:06:10;26.10;90.10
4530;DHT22;2277;51.626;7.516;2023-05-29T12:08:37;26.10;90.60
4530;DHT22;2277;51.626;7.516;2023-05-29T12:11:02;26.20;89.90
4530;DHT22;2277;51.626;7.516;2023-05-29T12:13:28;26.50;91.00
4530;DHT22;2277;51.626;7.516;2023-05-29T12:15:58;26.50;90.00
4530;DHT22;2277;51.626;7.516;2023-05-29T12:18:25;26.70;87.00
4530;DHT22;2277;51.626;7.516;2023-05-29T12:20:57;26.80;84.60
4530;DHT22;2277;51.626;7.516;2023-05-29T12:23:23;26.90;84.40
4530;DHT22;2277;51.626;7.516;2023-05-29T12:25:51;27.10;85.90
4530;DHT22;2277;51.626;7.516;2023-05-29T12:28:17;27.10;85.30
4530;DHT22;2277;51.626;7.516;2023-05-29T12:30:47;27.10;83.90
4530;DHT22;2277;51.626;7.516;2023-05-29T12:33:33;27.00;82.30
4530;DHT22;2277;51.626;7.516;2023-05-29T12:36:06;27.10;82.60
4530;DHT22;2277;51.626;7.516;2023-05-29T12:38:46;27.10;82.10
4530;DHT22;2277;51.626;7.516;2023-05-29T12:41:29;27.20;81.70
4530;DHT22;2277;51.626;7.516;2023-05-29T12:43:56;27.30;81.50
4530;DHT22;2277;51.626;7.516;2023-05-29T12:46:25;27.20;79.00
4530;DHT22;2277;51.626;7.516;2023-05-29T12:48:56;27.10;82.90
4530;DHT22;2277;51.626;7.516;2023-05-29T12:51:28;27.20;81.10
4530;DHT22;2277;51.626;7.516;2023-05-29T12:53:53;27.10;79.00
4530;DHT22;2277;51.626;7.516;2023-05-29T12:56:24;27.20;80.80
4530;DHT22;2277;51.626;7.516;2023-05-29T12:58:51;27.30;79.20
4530;DHT22;2277;51.626;7.516;2023-05-29T13:01:17;27.30;78.40
4530;DHT22;2277;51.626;7.516;2023-05-29T13:03:43;27.30;81.40
4530;DHT22;2277;51.626;7.516;2023-05-29T13:06:10;27.30;79.40
4530;DHT22;2277;51.626;7.516;2023-05-29T13:08:36;27.30;79.70
4530;DHT22;2277;51.626;7.516;2023-05-29T13:11:05;27.30;80.10
4530;DHT22;2277;51.626;7.516;2023-05-29T13:13:30;27.30;77.30
4530;DHT22;2277;51.626;7.516;2023-05-29T13:15:56;27.20;77.20
4530;DHT22;2277;51.626;7.516;2023-05-29T13:18:21;27.30;78.40
4530;DHT22;2277;51.626;7.516;2023-05-29T13:20:47;27.30;74.00
4530;DHT22;2277;51.626;7.516;2023-05-29T13:23:13;27.40;74.50
4530;DHT22;2277;51.626;7.516;2023-05-29T13:25:38;27.40;72.90
4530;DHT22;2277;51.626;7.516;2023-05-29T13:28:04;27.50;73.90
4530;DHT22;2277;51.626;7.516;2023-05-29T13:30:30;27.60;74.80
4530;DHT22;2277;51.626;7.516;2023-05-29T13:32:55;27.60;75.10
4530;DHT22;2277;51.626;7.516;2023-05-29T13:35:21;27.70;76.50
4530;DHT22;2277;51.626;7.516;2023-05-29T13:37:46;27.80;74.70
4530;DHT22;2277;51.626;7.516;2023-05-29T13:40:12;27.70;74.40
4530;DHT22;2277;51.626;7.516;2023-05-29T13:42:39;27.60;72.80
4530;DHT22;2277;51.626;7.516;2023-05-29T13:45:06;27.70;72.10
4530;DHT22;2277;51.626;7.516;2023-05-29T13:47:33;27.80;72.10
4530;DHT22;2277;51.626;7.516;2023-05-29T13:49:59;27.90;72.50
4530;DHT22;2277;51.626;7.516;2023-05-29T13:52:26;27.80;68.60
4530;DHT22;2277;51.626;7.516;2023-05-29T13:54:51;27.70;70.30
4530;DHT22;2277;51.626;7.516;2023-05-29T13:57:17;27.80;69.90
4530;DHT22;2277;51.626;7.516;2023-05-29T13:59:43;27.90;70.10
4530;DHT22;2277;51.626;7.516;2023-05-29T14:02:08;27.80;67.10
4530;DHT22;2277;51.626;7.516;2023-05-29T14:04:34;27.70;70.30
4530;DHT22;2277;51.626;7.516;2023-05-29T14:07:00;27.80;71.30
4530;DHT22;2277;51.626;7.516;2023-05-29T14:09:26;27.70;68.90
4530;DHT22;2277;51.626;7.516;2023-05-29T14:12:00;27.70;71.00
4530;DHT22;2277;51.626;7.516;2023-05-29T14:14:27;27.70;71.40
4530;DHT22;2277;51.626;7.516;2023-05-29T14:16:53;27.80;70.70
4530;DHT22;2277;51.626;7.516;2023-05-29T14:19:20;27.80;68.20
4530;DHT22;2277;51.626;7.516;2023-05-29T14:21:46;27.80;68.50
4530;DHT22;2277;51.626;7.516;2023-05-29T14:24:12;27.80;70.30
4530;DHT22;2277;51.626;7.516;2023-05-29T14:26:38;27.90;68.90
4530;DHT22;2277;51.626;7.516;2023-05-29T14:29:04;27.80;66.60
4530;DHT22;2277;51.626;7.516;2023-05-29T14:31:30;27.90;66.50
4530;DHT22;2277;51.626;7.516;2023-05-29T14:33:56;28.00;66.80
4530;DHT22;2277;51.626;7.516;2023-05-29T14:36:21;27.90;65.00
4530;DHT22;2277;51.626;7.516;2023-05-29T14:38:47;28.00;64.40
4530;DHT22;2277;51.626;7.516;2023-05-29T14:41:14;27.90;65.40
4530;DHT22;2277;51.626;7.516;2023-05-29T14:43:41;27.80;65.60
4530;DHT22;2277;51.626;7.516;2023-05-29T14:46:07;27.70;66.80
4530;DHT22;2277;51.626;7.516;2023-05-29T14:48:33;27.80;66.40
4530;DHT22;2277;51.626;7.516;2023-05-29T14:50:58;27.80;64.30
4530;DHT22;2277;51.626;7.516;2023-05-29T14:53:24;27.90;63.70
4530;DHT22;2277;51.626;7.516;2023-05-29T14:55:50;28.00;63.70
4530;DHT22;2277;51.626;7.516;2023-05-29T14:58:15;28.10;61.00
4530;DHT22;2277;51.626;7.516;2023-05-29T15:00:41;28.20;63.70
4530;DHT22;2277;51.626;7.516;2023-05-29T15:03:07;28.20;61.50
4530;DHT22;2277;51.626;7.516;2023-05-29T15:05:32;28.10;62.90
4530;DHT22;2277;51.626;7.516;2023-05-29T15:07:58;28.10;62.30
4530;DHT22;2277;51.626;7.516;2023-05-29T15:10:25;28.10;63.30
4530;DHT22;2277;51.626;7.516;2023-05-29T15:12:54;28.20;61.90
4530;DHT22;2277;51.626;7.516;2023-05-29T15:15:27;28.40;61.20
4530;DHT22;2277;51.626;7.516;2023-05-29T15:17:53;28.40;59.90
4530;DHT22;2277;51.626;7.516;2023-05-29T15:20:25;28.30;60.00
4530;DHT22;2277;51.626;7.516;2023-05-29T15:22:51;28.30;62.20
4530;DHT22;2277;51.626;7.516;2023-05-29T15:25:19;28.30;61.40
4530;DHT22;2277;51.626;7.516;2023-05-29T15:27:45;28.20;59.70
4530;DHT22;2277;51.626;7.516;2023-05-29T15:30:12;28.10;58.60
4530;DHT22;2277;51.626;7.516;2023-05-29T15:32:39;28.00;58.70
4530;DHT22;2277;51.626;7.516;2023-05-29T15:35:12;28.00;58.60
4530;DHT22;2277;51.626;7.516;2023-05-29T15:37:38;28.00;58.80
4530;DHT22;2277;51.626;7.516;2023-05-29T15:40:04;27.90;59.90
4530;DHT22;2277;51.626;7.516;2023-05-29T15:42:31;27.80;58.40
4530;DHT22;2277;51.626;7.516;2023-05-29T15:44:56;27.80;58.80
4530;DHT22;2277;51.626;7.516;2023-05-29T15:47:22;27.70;56.70
4530;DHT22;2277;51.626;7.516;2023-05-29T15:49:49;27.80;58.20
4530;DHT22;2277;51.626;7.516;2023-05-29T15:52:15;27.60;56.40
4530;DHT22;2277;51.626;7.516;2023-05-29T15:54:40;27.50;55.90
4530;DHT22;2277;51.626;7.516;2023-05-29T15:57:06;27.40;55.50
4530;DHT22;2277;51.626;7.516;2023-05-29T15:59:32;27.30;56.70
4530;DHT22;2277;51.626;7.516;2023-05-29T16:01:58;27.10;56.50
4530;DHT22;2277;51.626;7.516;2023-05-29T16:04:24;27.00;57.30
4530;DHT22;2277;51.626;7.516;2023-05-29T16:06:49;26.90;56.30
4530;DHT22;2277;51.626;7.516;2023-05-29T16:09:16;26.80;56.00
4530;DHT22;2277;51.626;7.516;2023-05-29T16:11:41;26.80;56.20
4530;DHT22;2277;51.626;7.516;2023-05-29T16:14:07;26.80;57.10
4530;DHT22;2277;51.626;7.516;2023-05-29T16:16:34;26.80;55.00
4530;DHT22;2277;51.626;7.516;2023-05-29T16:19:00;26.80;54.30
4530;DHT22;2277;51.626;7.516;2023-05-29T16:21:25;26.70;54.80
4530;DHT22;2277;51.626;7.516;2023-05-29T16:23:51;26.60;56.10
4530;DHT22;2277;51.626;7.516;2023-05-29T16:26:24;26.50;55.80
4530;DHT22;2277;51.626;7.516;2023-05-29T16:28:52;26.40;56.10
4530;DHT22;2277;51.626;7.516;2023-05-29T16:31:18;26.20;53.20
4530;DHT22;2277;51.626;7.516;2023-05-29T16:33:43;26.00;53.90